sensor_id;sensor_type;location;lat;lon;timestamp;P1;durP1;ratioP1;P2;durP2;ratioP2
57635;SDS011;43465;50.728;4.160;2023-07-29T00:01:27;1.58;;;1.48;;
57635;SDS011;43465;50.728;4.160;2023-07-29T00:03:52;3.03;;;1.73;;
57635;SDS011;43465;50.728;4.160;2023-07-29T00:06:18;1.60;;;1.50;;
57635;SDS011;43465;50.728;4.160;2023-07-29T00:08:43;2.40;;;1.48;;
57635;SDS011;43465;50.728;4.160;2023-07-29T00:11:09;2.10;;;1.50;;
57635;SDS011;43465;50.728;4.160;2023-07-29T00:13:35;1.65;;;1.55;;
57635;SDS011;43465;50.728;4.160;2023-07-29T00:16:00;3.28;;;1.33;;
57635;SDS011;43465;50.728;4.160;2023-07-29T00:18:26;2.53;;;1.75;;
57635;SDS011;43465;50.728;4.160;2023-07-29T00:20:52;2.33;;;1.60;;
57635;SDS011;43465;50.728;4.160;2023-07-29T00:23:18;3.10;;;1.80;;
57635;SDS011;43465;50.728;4.160;2023-07-29T00:25:44;3.53;;;1.63;;
57635;SDS011;43465;50.728;4.160;2023-07-29T00:28:11;2.05;;;1.50;;
57635;SDS011;43465;50.728;4.160;2023-07-29T00:30:37;3.10;;;1.45;;
57635;SDS011;43465;50.728;4.160;2023-07-29T00:33:03;2.13;;;1.63;;
57635;SDS011;43465;50.728;4.160;2023-07-29T00:35:28;1.58;;;1.48;;
57635;SDS011;43465;50.728;4.160;2023-07-29T00:37:54;3.88;;;1.80;;
57635;SDS011;43465;50.728;4.160;2023-07-29T00:40:21;2.47;;;1.70;;
57635;SDS011;43465;50.728;4.160;2023-07-29T00:42:48;2.17;;;1.80;;
57635;SDS011;43465;50.728;4.160;2023-07-29T00:45:14;3.17;;;1.65;;
57635;SDS011;43465;50.728;4.160;2023-07-29T00:47:40;3.42;;;1.90;;
57635;SDS011;43465;50.728;4.160;2023-07-29T00:50:07;4.47;;;1.92;;
57635;SDS011;43465;50.728;4.160;2023-07-29T00:52:36;3.67;;;1.90;;
57635;SDS011;43465;50.728;4.160;2023-07-29T00:55:02;3.13;;;2.05;;
57635;SDS011;43465;50.728;4.160;2023-07-29T00:57:28;2.13;;;2.03;;
57635;SDS011;43465;50.728;4.160;2023-07-29T00:59:55;3.92;;;2.28;;
57635;SDS011;43465;50.728;4.160;2023-07-29T01:02:21;2.45;;;2.03;;
57635;SDS011;43465;50.728;4.160;2023-07-29T01:04:53;4.03;;;2.35;;
57635;SDS011;43465;50.728;4.160;2023-07-29T01:07:25;4.20;;;2.10;;
57635;SDS011;43465;50.728;4.160;2023-07-29T01:10:22;3.38;;;1.92;;
57635;SDS011;43465;50.728;4.160;2023-07-29T01:16:05;2.88;;;1.90;;
57635;SDS011;43465;50.728;4.160;2023-07-29T01:18:39;4.00;;;2.15;;
57635;SDS011;43465;50.728;4.160;2023-07-29T01:21:09;4.05;;;2.13;;
57635;SDS011;43465;50.728;4.160;2023-07-29T01:23:38;3.92;;;2.38;;
57635;SDS011;43465;50.728;4.160;2023-07-29T01:26:04;3.88;;;2.13;;
57635;SDS011;43465;50.728;4.160;2023-07-29T01:28:29;4.25;;;2.25;;
57635;SDS011;43465;50.728;4.160;2023-07-29T01:31:16;3.60;;;2.42;;
57635;SDS011;43465;50.728;4.160;2023-07-29T01:33:48;6.18;;;2.78;;
57635;SDS011;43465;50.728;4.160;2023-07-29T01:36:25;4.60;;;2.50;;
57635;SDS011;43465;50.728;4.160;2023-07-29T01:38:54;2.75;;;2.28;;
57635;SDS011;43465;50.728;4.160;2023-07-29T01:41:22;4.95;;;2.42;;
57635;SDS011;43465;50.728;4.160;2023-07-29T01:43:49;6.68;;;2.40;;
57635;SDS011;43465;50.728;4.160;2023-07-29T01:46:15;3.55;;;2.83;;
57635;SDS011;43465;50.728;4.160;2023-07-29T01:48:41;3.10;;;2.40;;
57635;SDS011;43465;50.728;4.160;2023-07-29T01:51:07;3.25;;;2.65;;
57635;SDS011;43465;50.728;4.160;2023-07-29T01:53:35;5.03;;;2.55;;
57635;SDS011;43465;50.728;4.160;2023-07-29T01:56:01;5.20;;;2.70;;
57635;SDS011;43465;50.728;4.160;2023-07-29T01:58:27;4.03;;;2.88;;
57635;SDS011;43465;50.728;4.160;2023-07-29T02:00:53;3.30;;;2.45;;
57635;SDS011;43465;50.728;4.160;2023-07-29T02:03:18;4.63;;;2.67;;
57635;SDS011;43465;50.728;4.160;2023-07-29T02:05:44;5.05;;;2.70;;
57635;SDS011;43465;50.728;4.160;2023-07-29T02:08:10;3.70;;;2.65;;
57635;SDS011;43465;50.728;4.160;2023-07-29T02:10:36;3.45;;;2.83;;
57635;SDS011;43465;50.728;4.160;2023-07-29T02:13:02;4.70;;;2.90;;
57635;SDS011;43465;50.728;4.160;2023-07-29T02:15:28;3.50;;;2.60;;
57635;SDS011;43465;50.728;4.160;2023-07-29T02:17:54;6.40;;;2.88;;
57635;SDS011;43465;50.728;4.160;2023-07-29T02:20:20;4.60;;;3.13;;
57635;SDS011;43465;50.728;4.160;2023-07-29T02:22:45;5.60;;;3.05;;
57635;SDS011;43465;50.728;4.160;2023-07-29T02:25:13;5.18;;;2.95;;
57635;SDS011;43465;50.728;4.160;2023-07-29T02:27:39;3.30;;;3.00;;
57635;SDS011;43465;50.728;4.160;2023-07-29T02:30:05;4.63;;;3.03;;
57635;SDS011;43465;50.728;4.160;2023-07-29T02:32:31;5.18;;;3.22;;
57635;SDS011;43465;50.728;4.160;2023-07-29T02:34:56;5.10;;;3.42;;
57635;SDS011;43465;50.728;4.160;2023-07-29T02:37:22;4.88;;;3.00;;
57635;SDS011;43465;50.728;4.160;2023-07-29T02:39:48;4.13;;;3.03;;
57635;SDS011;43465;50.728;4.160;2023-07-29T02:42:13;4.90;;;3.08;;
57635;SDS011;43465;50.728;4.160;2023-07-29T02:44:39;5.00;;;2.80;;
57635;SDS011;43465;50.728;4.160;2023-07-29T02:47:05;4.72;;;2.97;;
57635;SDS011;43465;50.728;4.160;2023-07-29T02:49:31;7.35;;;2.85;;
57635;SDS011;43465;50.728;4.160;2023-07-29T02:51:56;4.78;;;3.20;;
57635;SDS011;43465;50.728;4.160;2023-07-29T02:54:22;3.55;;;2.55;;
57635;SDS011;43465;50.728;4.160;2023-07-29T02:56:49;5.45;;;2.70;;
57635;SDS011;43465;50.728;4.160;2023-07-29T02:59:15;5.28;;;2.63;;
57635;SDS011;43465;50.728;4.160;2023-07-29T03:01:41;3.70;;;2.60;;
57635;SDS011;43465;50.728;4.160;2023-07-29T03:04:06;2.92;;;2.40;;
57635;SDS011;43465;50.728;4.160;2023-07-29T03:06:33;3.42;;;2.50;;
57635;SDS011;43465;50.728;4.160;2023-07-29T03:08:58;3.20;;;2.83;;
57635;SDS011;43465;50.728;4.160;2023-07-29T03:11:24;4.00;;;2.63;;
57635;SDS011;43465;50.728;4.160;2023-07-29T03:13:49;5.18;;;2.78;;
57635;SDS011;43465;50.728;4.160;2023-07-29T03:16:16;4.00;;;2.90;;
57635;SDS011;43465;50.728;4.160;2023-07-29T03:18:42;5.05;;;2.67;;
57635;SDS011;43465;50.728;4.160;2023-07-29T03:21:09;3.30;;;2.72;;
57635;SDS011;43465;50.728;4.160;2023-07-29T03:23:35;3.85;;;2.63;;
57635;SDS011;43465;50.728;4.160;2023-07-29T03:26:03;4.32;;;2.95;;
57635;SDS011;43465;50.728;4.160;2023-07-29T03:28:35;6.10;;;3.30;;
57635;SDS011;43465;50.728;4.160;2023-07-29T03:31:02;3.40;;;2.72;;
57635;SDS011;43465;50.728;4.160;2023-07-29T03:33:28;6.45;;;3.42;;
57635;SDS011;43465;50.728;4.160;2023-07-29T03:35:54;5.32;;;2.92;;
57635;SDS011;43465;50.728;4.160;2023-07-29T03:38:20;5.30;;;3.20;;
57635;SDS011;43465;50.728;4.160;2023-07-29T03:40:46;4.95;;;2.83;;
57635;SDS011;43465;50.728;4.160;2023-07-29T03:43:12;3.85;;;3.42;;
57635;SDS011;43465;50.728;4.160;2023-07-29T03:45:39;4.78;;;3.38;;
57635;SDS011;43465;50.728;4.160;2023-07-29T03:48:05;5.82;;;3.35;;
57635;SDS011;43465;50.728;4.160;2023-07-29T03:50:32;3.92;;;3.25;;
57635;SDS011;43465;50.728;4.160;2023-07-29T03:52:59;3.30;;;3.00;;
57635;SDS011;43465;50.728;4.160;2023-07-29T03:55:24;5.00;;;3.33;;
57635;SDS011;43465;50.728;4.160;2023-07-29T03:57:50;7.03;;;3.38;;
57635;SDS011;43465;50.728;4.160;2023-07-29T04:00:16;6.25;;;3.30;;
57635;SDS011;43465;50.728;4.160;2023-07-29T04:02:42;3.63;;;3.33;;
57635;SDS011;43465;50.728;4.160;2023-07-29T04:05:07;7.22;;;3.35;;
57635;SDS011;43465;50.728;4.160;2023-07-29T04:07:34;4.30;;;2.97;;
57635;SDS011;43465;50.728;4.160;2023-07-29T04:10:00;5.72;;;3.30;;
57635;SDS011;43465;50.728;4.160;2023-07-29T04:12:27;6.90;;;3.60;;
57635;SDS011;43465;50.728;4.160;2023-07-29T04:14:52;4.95;;;3.25;;
57635;SDS011;43465;50.728;4.160;2023-07-29T04:17:18;5.70;;;3.25;;
57635;SDS011;43465;50.728;4.160;2023-07-29T04:19:44;7.13;;;3.28;;
57635;SDS011;43465;50.728;4.160;2023-07-29T04:22:12;4.50;;;3.65;;
57635;SDS011;43465;50.728;4.160;2023-07-29T04:24:38;5.60;;;3.20;;
57635;SDS011;43465;50.728;4.160;2023-07-29T04:27:03;10.02;;;3.38;;
57635;SDS011;43465;50.728;4.160;2023-07-29T04:29:29;3.20;;;2.90;;
57635;SDS011;43465;50.728;4.160;2023-07-29T04:31:55;4.45;;;3.10;;
57635;SDS011;43465;50.728;4.160;2023-07-29T04:34:21;4.07;;;3.00;;
57635;SDS011;43465;50.728;4.160;2023-07-29T04:36:46;6.68;;;3.13;;
57635;SDS011;43465;50.728;4.160;2023-07-29T04:39:12;5.20;;;3.20;;
57635;SDS011;43465;50.728;4.160;2023-07-29T04:41:38;5.38;;;3.38;;
57635;SDS011;43465;50.728;4.160;2023-07-29T04:44:04;5.80;;;3.38;;
57635;SDS011;43465;50.728;4.160;2023-07-29T04:46:29;8.10;;;3.33;;
57635;SDS011;43465;50.728;4.160;2023-07-29T04:48:55;4.47;;;3.00;;
57635;SDS011;43465;50.728;4.160;2023-07-29T04:51:21;5.80;;;3.30;;
57635;SDS011;43465;50.728;4.160;2023-07-29T04:53:47;5.47;;;3.03;;
57635;SDS011;43465;50.728;4.160;2023-07-29T04:56:13;8.95;;;3.10;;
57635;SDS011;43465;50.728;4.160;2023-07-29T04:58:38;6.10;;;3.28;;
57635;SDS011;43465;50.728;4.160;2023-07-29T05:01:04;3.97;;;2.72;;
57635;SDS011;43465;50.728;4.160;2023-07-29T05:03:31;4.00;;;3.22;;
57635;SDS011;43465;50.728;4.160;2023-07-29T05:05:57;4.18;;;2.80;;
57635;SDS011;43465;50.728;4.160;2023-07-29T05:08:24;6.05;;;2.70;;
57635;SDS011;43465;50.728;4.160;2023-07-29T05:10:53;4.32;;;2.92;;
57635;SDS011;43465;50.728;4.160;2023-07-29T05:13:19;4.20;;;2.90;;
57635;SDS011;43465;50.728;4.160;2023-07-29T05:15:46;4.07;;;2.90;;
57635;SDS011;43465;50.728;4.160;2023-07-29T05:18:12;4.45;;;2.40;;
57635;SDS011;43465;50.728;4.160;2023-07-29T05:20:38;3.00;;;2.70;;
57635;SDS011;43465;50.728;4.160;2023-07-29T05:23:04;5.25;;;2.70;;
57635;SDS011;43465;50.728;4.160;2023-07-29T05:25:29;4.65;;;2.72;;
57635;SDS011;43465;50.728;4.160;2023-07-29T05:27:55;3.97;;;2.28;;
57635;SDS011;43465;50.728;4.160;2023-07-29T05:30:22;4.25;;;2.30;;
57635;SDS011;43465;50.728;4.160;2023-07-29T05:32:48;6.07;;;2.40;;
57635;SDS011;43465;50.728;4.160;2023-07-29T05:35:13;5.82;;;2.35;;
57635;SDS011;43465;50.728;4.160;2023-07-29T05:37:39;4.65;;;2.17;;
57635;SDS011;43465;50.728;4.160;2023-07-29T05:40:06;2.88;;;1.95;;
57635;SDS011;43465;50.728;4.160;2023-07-29T05:42:32;3.50;;;1.90;;
57635;SDS011;43465;50.728;4.160;2023-07-29T05:44:58;2.40;;;2.10;;
57635;SDS011;43465;50.728;4.160;2023-07-29T05:47:24;2.00;;;1.65;;
57635;SDS011;43465;50.728;4.160;2023-07-29T05:49:50;2.45;;;2.20;;
57635;SDS011;43465;50.728;4.160;2023-07-29T05:52:16;1.80;;;1.70;;
57635;SDS011;43465;50.728;4.160;2023-07-29T05:54:41;3.55;;;2.17;;
57635;SDS011;43465;50.728;4.160;2023-07-29T05:57:08;6.00;;;2.08;;
57635;SDS011;43465;50.728;4.160;2023-07-29T05:59:35;2.90;;;1.85;;
57635;SDS011;43465;50.728;4.160;2023-07-29T06:02:00;5.68;;;1.80;;
57635;SDS011;43465;50.728;4.160;2023-07-29T06:04:26;2.67;;;1.90;;
57635;SDS011;43465;50.728;4.160;2023-07-29T06:06:52;4.32;;;2.63;;
57635;SDS011;43465;50.728;4.160;2023-07-29T06:09:17;5.60;;;2.00;;
57635;SDS011;43465;50.728;4.160;2023-07-29T06:11:43;3.70;;;1.90;;
57635;SDS011;43465;50.728;4.160;2023-07-29T06:14:09;2.70;;;1.90;;
57635;SDS011;43465;50.728;4.160;2023-07-29T06:16:34;6.00;;;1.88;;
57635;SDS011;43465;50.728;4.160;2023-07-29T06:19:00;3.83;;;2.05;;
57635;SDS011;43465;50.728;4.160;2023-07-29T06:21:26;4.25;;;2.25;;
57635;SDS011;43465;50.728;4.160;2023-07-29T06:23:54;3.38;;;1.90;;
57635;SDS011;43465;50.728;4.160;2023-07-29T06:26:20;2.45;;;1.73;;
57635;SDS011;43465;50.728;4.160;2023-07-29T06:28:45;5.25;;;2.03;;
57635;SDS011;43465;50.728;4.160;2023-07-29T06:31:11;2.47;;;1.67;;
57635;SDS011;43465;50.728;4.160;2023-07-29T06:33:37;2.47;;;1.63;;
57635;SDS011;43465;50.728;4.160;2023-07-29T06:36:02;2.20;;;1.70;;
57635;SDS011;43465;50.728;4.160;2023-07-29T06:38:28;5.63;;;1.80;;
57635;SDS011;43465;50.728;4.160;2023-07-29T06:40:54;2.70;;;1.60;;
57635;SDS011;43465;50.728;4.160;2023-07-29T06:43:19;4.13;;;1.80;;
57635;SDS011;43465;50.728;4.160;2023-07-29T06:45:45;5.88;;;1.75;;
57635;SDS011;43465;50.728;4.160;2023-07-29T06:48:10;5.55;;;1.80;;
57635;SDS011;43465;50.728;4.160;2023-07-29T06:50:36;3.42;;;1.45;;
57635;SDS011;43465;50.728;4.160;2023-07-29T06:53:02;3.33;;;1.60;;
57635;SDS011;43465;50.728;4.160;2023-07-29T06:55:28;5.78;;;1.70;;
57635;SDS011;43465;50.728;4.160;2023-07-29T06:57:54;3.35;;;1.83;;
57635;SDS011;43465;50.728;4.160;2023-07-29T07:00:19;5.80;;;1.83;;
57635;SDS011;43465;50.728;4.160;2023-07-29T07:02:45;4.88;;;1.90;;
57635;SDS011;43465;50.728;4.160;2023-07-29T07:05:10;2.20;;;1.55;;
57635;SDS011;43465;50.728;4.160;2023-07-29T07:07:36;1.50;;;1.40;;
57635;SDS011;43465;50.728;4.160;2023-07-29T07:10:02;1.67;;;1.55;;
57635;SDS011;43465;50.728;4.160;2023-07-29T07:12:28;3.78;;;1.70;;
57635;SDS011;43465;50.728;4.160;2023-07-29T07:14:54;4.10;;;1.73;;
57635;SDS011;43465;50.728;4.160;2023-07-29T07:17:20;1.85;;;1.48;;
57635;SDS011;43465;50.728;4.160;2023-07-29T07:19:45;4.00;;;1.63;;
57635;SDS011;43465;50.728;4.160;2023-07-29T07:22:11;3.97;;;1.75;;
57635;SDS011;43465;50.728;4.160;2023-07-29T07:24:37;5.63;;;1.95;;
57635;SDS011;43465;50.728;4.160;2023-07-29T07:27:02;2.95;;;1.67;;
57635;SDS011;43465;50.728;4.160;2023-07-29T07:29:28;3.15;;;1.88;;
57635;SDS011;43465;50.728;4.160;2023-07-29T07:31:55;3.40;;;1.73;;
57635;SDS011;43465;50.728;4.160;2023-07-29T07:34:21;2.83;;;1.52;;
57635;SDS011;43465;50.728;4.160;2023-07-29T07:36:47;2.00;;;1.80;;
57635;SDS011;43465;50.728;4.160;2023-07-29T07:39:13;2.13;;;1.70;;
57635;SDS011;43465;50.728;4.160;2023-07-29T07:41:40;2.13;;;1.67;;
57635;SDS011;43465;50.728;4.160;2023-07-29T07:44:06;2.67;;;1.45;;
57635;SDS011;43465;50.728;4.160;2023-07-29T07:46:31;2.25;;;1.55;;
57635;SDS011;43465;50.728;4.160;2023-07-29T07:48:57;1.73;;;1.60;;
57635;SDS011;43465;50.728;4.160;2023-07-29T07:51:23;3.28;;;1.80;;
57635;SDS011;43465;50.728;4.160;2023-07-29T07:53:48;1.65;;;1.48;;
57635;SDS011;43465;50.728;4.160;2023-07-29T07:56:14;2.33;;;1.58;;
57635;SDS011;43465;50.728;4.160;2023-07-29T07:58:40;2.63;;;1.60;;
57635;SDS011;43465;50.728;4.160;2023-07-29T08:01:06;1.98;;;1.65;;
57635;SDS011;43465;50.728;4.160;2023-07-29T08:03:33;3.00;;;1.58;;
57635;SDS011;43465;50.728;4.160;2023-07-29T08:05:59;1.92;;;1.58;;
57635;SDS011;43465;50.728;4.160;2023-07-29T08:08:26;2.97;;;1.90;;
57635;SDS011;43465;50.728;4.160;2023-07-29T08:10:52;1.48;;;1.38;;
57635;SDS011;43465;50.728;4.160;2023-07-29T08:13:19;1.40;;;1.30;;
57635;SDS011;43465;50.728;4.160;2023-07-29T08:15:46;1.90;;;1.33;;
57635;SDS011;43465;50.728;4.160;2023-07-29T08:18:15;1.48;;;1.10;;
57635;SDS011;43465;50.728;4.160;2023-07-29T08:20:51;7.38;;;1.70;;
57635;SDS011;43465;50.728;4.160;2023-07-29T08:23:17;1.65;;;1.55;;
57635;SDS011;43465;50.728;4.160;2023-07-29T08:25:43;1.80;;;1.70;;
57635;SDS011;43465;50.728;4.160;2023-07-29T08:28:09;2.15;;;1.60;;
57635;SDS011;43465;50.728;4.160;2023-07-29T08:30:36;2.72;;;1.50;;
57635;SDS011;43465;50.728;4.160;2023-07-29T08:33:01;2.88;;;1.55;;
57635;SDS011;43465;50.728;4.160;2023-07-29T08:35:27;1.38;;;1.38;;
57635;SDS011;43465;50.728;4.160;2023-07-29T08:37:53;3.40;;;1.50;;
57635;SDS011;43465;50.728;4.160;2023-07-29T08:40:18;1.63;;;1.40;;
57635;SDS011;43465;50.728;4.160;2023-07-29T08:42:50;2.40;;;1.55;;
57635;SDS011;43465;50.728;4.160;2023-07-29T08:45:16;2.45;;;1.50;;
57635;SDS011;43465;50.728;4.160;2023-07-29T08:47:42;2.05;;;1.30;;
57635;SDS011;43465;50.728;4.160;2023-07-29T08:50:08;3.58;;;1.50;;
57635;SDS011;43465;50.728;4.160;2023-07-29T08:52:34;3.17;;;1.40;;
57635;SDS011;43465;50.728;4.160;2023-07-29T08:55:01;1.50;;;1.40;;
57635;SDS011;43465;50.728;4.160;2023-07-29T08:57:27;3.53;;;1.67;;
57635;SDS011;43465;50.728;4.160;2023-07-29T08:59:53;1.40;;;1.30;;
57635;SDS011;43465;50.728;4.160;2023-07-29T09:02:20;1.20;;;1.20;;
57635;SDS011;43465;50.728;4.160;2023-07-29T09:04:45;2.53;;;1.50;;
57635;SDS011;43465;50.728;4.160;2023-07-29T09:07:11;1.88;;;1.75;;
57635;SDS011;43465;50.728;4.160;2023-07-29T09:09:37;3.00;;;1.70;;
57635;SDS011;43465;50.728;4.160;2023-07-29T09:12:03;3.08;;;1.40;;
57635;SDS011;43465;50.728;4.160;2023-07-29T09:14:29;1.63;;;1.52;;
57635;SDS011;43465;50.728;4.160;2023-07-29T09:16:55;3.22;;;1.30;;
57635;SDS011;43465;50.728;4.160;2023-07-29T09:19:20;1.67;;;1.20;;
57635;SDS011;43465;50.728;4.160;2023-07-29T09:21:49;3.30;;;1.60;;
57635;SDS011;43465;50.728;4.160;2023-07-29T09:24:15;1.70;;;1.58;;
57635;SDS011;43465;50.728;4.160;2023-07-29T09:26:51;2.08;;;1.88;;
57635;SDS011;43465;50.728;4.160;2023-07-29T09:29:22;2.35;;;1.80;;
57635;SDS011;43465;50.728;4.160;2023-07-29T09:31:48;2.97;;;1.60;;
57635;SDS011;43465;50.728;4.160;2023-07-29T09:34:14;3.15;;;1.42;;
57635;SDS011;43465;50.728;4.160;2023-07-29T09:36:42;4.75;;;1.63;;
57635;SDS011;43465;50.728;4.160;2023-07-29T09:39:11;1.40;;;1.30;;
57635;SDS011;43465;50.728;4.160;2023-07-29T09:41:40;1.50;;;1.40;;
57635;SDS011;43465;50.728;4.160;2023-07-29T09:44:06;3.10;;;1.35;;
57635;SDS011;43465;50.728;4.160;2023-07-29T09:46:36;4.85;;;1.50;;
57635;SDS011;43465;50.728;4.160;2023-07-29T09:49:06;4.28;;;2.00;;
57635;SDS011;43465;50.728;4.160;2023-07-29T09:51:36;4.15;;;2.75;;
57635;SDS011;43465;50.728;4.160;2023-07-29T09:54:05;3.17;;;2.78;;
57635;SDS011;43465;50.728;4.160;2023-07-29T09:56:32;6.20;;;3.60;;
57635;SDS011;43465;50.728;4.160;2023-07-29T09:58:57;7.50;;;2.70;;
57635;SDS011;43465;50.728;4.160;2023-07-29T10:01:23;4.05;;;1.90;;
57635;SDS011;43465;50.728;4.160;2023-07-29T10:03:49;4.05;;;2.50;;
57635;SDS011;43465;50.728;4.160;2023-07-29T10:06:16;13.20;;;4.15;;
57635;SDS011;43465;50.728;4.160;2023-07-29T10:08:43;11.20;;;5.45;;
57635;SDS011;43465;50.728;4.160;2023-07-29T10:11:10;5.10;;;4.10;;
57635;SDS011;43465;50.728;4.160;2023-07-29T10:13:36;8.23;;;4.15;;
57635;SDS011;43465;50.728;4.160;2023-07-29T10:16:03;5.10;;;4.10;;
57635;SDS011;43465;50.728;4.160;2023-07-29T10:18:30;6.03;;;3.83;;
57635;SDS011;43465;50.728;4.160;2023-07-29T10:20:57;7.55;;;3.95;;
57635;SDS011;43465;50.728;4.160;2023-07-29T10:23:24;6.13;;;3.42;;
57635;SDS011;43465;50.728;4.160;2023-07-29T10:25:57;5.32;;;4.07;;
57635;SDS011;43465;50.728;4.160;2023-07-29T10:28:30;4.55;;;3.65;;
57635;SDS011;43465;50.728;4.160;2023-07-29T10:30:58;5.50;;;3.92;;
57635;SDS011;43465;50.728;4.160;2023-07-29T10:33:24;4.68;;;4.15;;
57635;SDS011;43465;50.728;4.160;2023-07-29T10:35:51;7.78;;;3.90;;
57635;SDS011;43465;50.728;4.160;2023-07-29T10:38:19;5.43;;;3.55;;
57635;SDS011;43465;50.728;4.160;2023-07-29T10:43:26;4.55;;;3.10;;
57635;SDS011;43465;50.728;4.160;2023-07-29T10:48:44;4.50;;;2.80;;
57635;SDS011;43465;50.728;4.160;2023-07-29T10:51:22;3.63;;;2.97;;
57635;SDS011;43465;50.728;4.160;2023-07-29T10:53:58;3.20;;;2.92;;
57635;SDS011;43465;50.728;4.160;2023-07-29T10:56:32;3.20;;;2.83;;
57635;SDS011;43465;50.728;4.160;2023-07-29T10:59:02;4.72;;;2.83;;
57635;SDS011;43465;50.728;4.160;2023-07-29T11:01:56;6.32;;;2.67;;
57635;SDS011;43465;50.728;4.160;2023-07-29T11:17:39;3.80;;;2.63;;
57635;SDS011;43465;50.728;4.160;2023-07-29T11:20:07;5.18;;;2.80;;
57635;SDS011;43465;50.728;4.160;2023-07-29T11:22:33;2.78;;;2.58;;
57635;SDS011;43465;50.728;4.160;2023-07-29T11:25:00;2.50;;;2.25;;
57635;SDS011;43465;50.728;4.160;2023-07-29T11:27:26;2.38;;;2.17;;
57635;SDS011;43465;50.728;4.160;2023-07-29T11:29:56;4.05;;;2.47;;
57635;SDS011;43465;50.728;4.160;2023-07-29T11:32:23;2.42;;;2.33;;
57635;SDS011;43465;50.728;4.160;2023-07-29T11:34:50;3.58;;;2.60;;
57635;SDS011;43465;50.728;4.160;2023-07-29T11:37:16;2.50;;;2.33;;
57635;SDS011;43465;50.728;4.160;2023-07-29T11:39:42;3.05;;;2.13;;
57635;SDS011;43465;50.728;4.160;2023-07-29T11:42:12;2.38;;;2.17;;
57635;SDS011;43465;50.728;4.160;2023-07-29T11:44:39;2.15;;;2.05;;
57635;SDS011;43465;50.728;4.160;2023-07-29T11:47:11;2.30;;;1.80;;
57635;SDS011;43465;50.728;4.160;2023-07-29T11:52:05;2.80;;;1.90;;
57635;SDS011;43465;50.728;4.160;2023-07-29T11:54:35;3.58;;;1.98;;
57635;SDS011;43465;50.728;4.160;2023-07-29T11:57:03;1.80;;;1.70;;
57635;SDS011;43465;50.728;4.160;2023-07-29T11:59:33;2.38;;;2.28;;
57635;SDS011;43465;50.728;4.160;2023-07-29T12:02:00;3.75;;;2.50;;
57635;SDS011;43465;50.728;4.160;2023-07-29T12:04:27;2.83;;;2.40;;
57635;SDS011;43465;50.728;4.160;2023-07-29T12:06:54;2.88;;;2.50;;
57635;SDS011;43465;50.728;4.160;2023-07-29T12:09:21;3.20;;;2.60;;
57635;SDS011;43465;50.728;4.160;2023-07-29T12:11:46;6.97;;;3.05;;
57635;SDS011;43465;50.728;4.160;2023-07-29T12:14:12;7.28;;;3.83;;
57635;SDS011;43465;50.728;4.160;2023-07-29T12:16:42;6.45;;;4.65;;
57635;SDS011;43465;50.728;4.160;2023-07-29T12:19:08;5.38;;;4.78;;
57635;SDS011;43465;50.728;4.160;2023-07-29T12:21:36;5.35;;;4.55;;
57635;SDS011;43465;50.728;4.160;2023-07-29T12:24:02;5.25;;;4.80;;
57635;SDS011;43465;50.728;4.160;2023-07-29T12:26:31;8.10;;;4.97;;
57635;SDS011;43465;50.728;4.160;2023-07-29T12:28:57;5.65;;;4.35;;
57635;SDS011;43465;50.728;4.160;2023-07-29T12:31:30;4.72;;;4.20;;
57635;SDS011;43465;50.728;4.160;2023-07-29T12:33:57;4.63;;;4.22;;
57635;SDS011;43465;50.728;4.160;2023-07-29T12:36:27;5.10;;;3.97;;
57635;SDS011;43465;50.728;4.160;2023-07-29T12:39:11;4.47;;;4.07;;
57635;SDS011;43465;50.728;4.160;2023-07-29T12:41:44;4.35;;;3.95;;
57635;SDS011;43465;50.728;4.160;2023-07-29T12:44:10;4.55;;;3.88;;
57635;SDS011;43465;50.728;4.160;2023-07-29T12:46:36;5.38;;;3.65;;
57635;SDS011;43465;50.728;4.160;2023-07-29T12:49:01;3.97;;;3.67;;
57635;SDS011;43465;50.728;4.160;2023-07-29T12:51:27;3.20;;;3.00;;
57635;SDS011;43465;50.728;4.160;2023-07-29T12:53:53;2.70;;;2.50;;
57635;SDS011;43465;50.728;4.160;2023-07-29T12:56:19;3.10;;;2.80;;
57635;SDS011;43465;50.728;4.160;2023-07-29T12:58:45;2.78;;;2.17;;
57635;SDS011;43465;50.728;4.160;2023-07-29T13:01:10;1.80;;;1.70;;
57635;SDS011;43465;50.728;4.160;2023-07-29T13:03:42;1.95;;;1.88;;
57635;SDS011;43465;50.728;4.160;2023-07-29T13:06:08;3.20;;;1.60;;
57635;SDS011;43465;50.728;4.160;2023-07-29T13:08:34;1.80;;;1.70;;
57635;SDS011;43465;50.728;4.160;2023-07-29T13:10:59;1.60;;;1.50;;
57635;SDS011;43465;50.728;4.160;2023-07-29T13:13:25;1.70;;;1.60;;
57635;SDS011;43465;50.728;4.160;2023-07-29T13:15:51;1.85;;;1.60;;
57635;SDS011;43465;50.728;4.160;2023-07-29T13:18:17;2.20;;;1.65;;
57635;SDS011;43465;50.728;4.160;2023-07-29T13:20:43;1.83;;;1.73;;
57635;SDS011;43465;50.728;4.160;2023-07-29T13:23:08;2.25;;;1.80;;
57635;SDS011;43465;50.728;4.160;2023-07-29T13:25:34;1.70;;;1.60;;
57635;SDS011;43465;50.728;4.160;2023-07-29T13:28:00;1.88;;;1.60;;
57635;SDS011;43465;50.728;4.160;2023-07-29T13:30:25;1.73;;;1.63;;
57635;SDS011;43465;50.728;4.160;2023-07-29T13:32:51;1.70;;;1.60;;
57635;SDS011;43465;50.728;4.160;2023-07-29T13:35:16;1.90;;;1.80;;
57635;SDS011;43465;50.728;4.160;2023-07-29T13:37:42;2.05;;;1.63;;
57635;SDS011;43465;50.728;4.160;2023-07-29T13:40:08;1.80;;;1.70;;
57635;SDS011;43465;50.728;4.160;2023-07-29T13:42:33;2.80;;;1.73;;
57635;SDS011;43465;50.728;4.160;2023-07-29T13:44:59;1.90;;;1.80;;
57635;SDS011;43465;50.728;4.160;2023-07-29T13:47:25;2.13;;;1.70;;
57635;SDS011;43465;50.728;4.160;2023-07-29T13:49:51;1.50;;;1.40;;
57635;SDS011;43465;50.728;4.160;2023-07-29T13:52:16;2.25;;;1.73;;
57635;SDS011;43465;50.728;4.160;2023-07-29T13:54:42;1.60;;;1.50;;
57635;SDS011;43465;50.728;4.160;2023-07-29T13:57:07;1.85;;;1.70;;
57635;SDS011;43465;50.728;4.160;2023-07-29T13:59:35;2.30;;;1.45;;
57635;SDS011;43465;50.728;4.160;2023-07-29T14:02:03;3.75;;;1.70;;
57635;SDS011;43465;50.728;4.160;2023-07-29T14:04:32;1.77;;;1.50;;
57635;SDS011;43465;50.728;4.160;2023-07-29T14:06:58;1.58;;;1.52;;
57635;SDS011;43465;50.728;4.160;2023-07-29T14:09:24;1.65;;;1.55;;
57635;SDS011;43465;50.728;4.160;2023-07-29T14:11:50;1.60;;;1.48;;
57635;SDS011;43465;50.728;4.160;2023-07-29T14:14:16;1.42;;;1.33;;
57635;SDS011;43465;50.728;4.160;2023-07-29T14:16:41;1.20;;;1.20;;
57635;SDS011;43465;50.728;4.160;2023-07-29T14:19:07;1.55;;;1.30;;
57635;SDS011;43465;50.728;4.160;2023-07-29T14:21:33;1.50;;;1.40;;
57635;SDS011;43465;50.728;4.160;2023-07-29T14:23:58;1.45;;;1.35;;
57635;SDS011;43465;50.728;4.160;2023-07-29T14:26:24;1.75;;;1.40;;
57635;SDS011;43465;50.728;4.160;2023-07-29T14:28:50;3.92;;;1.42;;
57635;SDS011;43465;50.728;4.160;2023-07-29T14:31:16;1.80;;;1.30;;
57635;SDS011;43465;50.728;4.160;2023-07-29T14:33:45;1.27;;;1.25;;
57635;SDS011;43465;50.728;4.160;2023-07-29T14:36:10;1.00;;;0.98;;
57635;SDS011;43465;50.728;4.160;2023-07-29T14:38:36;1.20;;;1.08;;
57635;SDS011;43465;50.728;4.160;2023-07-29T14:41:02;1.10;;;1.00;;
57635;SDS011;43465;50.728;4.160;2023-07-29T14:43:29;1.63;;;1.13;;
57635;SDS011;43465;50.728;4.160;2023-07-29T14:45:55;1.02;;;1.02;;
57635;SDS011;43465;50.728;4.160;2023-07-29T14:48:21;1.17;;;1.17;;
57635;SDS011;43465;50.728;4.160;2023-07-29T14:50:48;1.27;;;1.17;;
57635;SDS011;43465;50.728;4.160;2023-07-29T14:53:13;1.30;;;1.20;;
57635;SDS011;43465;50.728;4.160;2023-07-29T14:55:39;1.33;;;1.30;;
57635;SDS011;43465;50.728;4.160;2023-07-29T14:58:05;1.70;;;1.60;;
57635;SDS011;43465;50.728;4.160;2023-07-29T15:00:30;1.40;;;1.30;;
57635;SDS011;43465;50.728;4.160;2023-07-29T15:02:56;1.48;;;1.25;;
57635;SDS011;43465;50.728;4.160;2023-07-29T15:05:22;1.20;;;1.10;;
57635;SDS011;43465;50.728;4.160;2023-07-29T15:07:47;3.58;;;1.40;;
57635;SDS011;43465;50.728;4.160;2023-07-29T15:10:14;1.20;;;1.10;;